• Join FlightAware (Why Join?)
  • Login
  • US Flag 
10:43AM EDT


 

Airport Tracker/Info


-or-


 

Live Flight TrackerFlight Track Log ✈ C-GONN ✈ 27-Apr-2013 ✈ CYKA - CYVR

Flight Track Log - Related Links

Times and Time Zones

All times are in EDT time to prevent confusion due to time zone crossing. See the C-GONN flight status page for this flight to view local times or setup timezone preferences in your user account.

Time Position Orientation Groundspeed Altitude Reporting Facility
EDT Latitude Longitude Course Direction KTS MPH feet Rate Location/Type
06:55PM 50.7000 -120.4833 209° Southwest 100 115 3,200  Level Vancouver Center
06:56PM 50.7000 -120.5333 270° West 110 127 4,800 1,260 Climbing Vancouver Center
06:57PM 50.6833 -120.5500 212° Southwest 110 127 5,800 1,200 Climbing Vancouver Center
06:58PM 50.6667 -120.5833 232° Southwest 120 138 7,200 1,380 Climbing Vancouver Center
06:59PM 50.4758 -120.5075 212° Southwest  Level FlightAware Approximate
06:59PM 50.6333 -120.6167 212° Southwest 120 138 8,600  Level Vancouver Center
07:00PM 50.4243 -120.5505 203° Southwest  Level FlightAware Approximate
07:00PM 50.6167 -120.6333 212° Southwest 120 138 9,900  Level Vancouver Center
07:01PM 50.3720 -120.5912 209° Southwest  Level FlightAware Approximate
07:01PM 50.5833 -120.7000 232° Southwest 130 150 11,100  Level Vancouver Center
07:02PM 50.5500 -120.7167 198° South 150 173 12,700 1,320 Climbing Vancouver Center
07:03PM 50.5167 -120.7833 232° Southwest 160 184 13,800 1,080 Climbing Vancouver Center
07:04PM 50.4667 -120.8333 212° Southwest 160 184 14,900 1,200 Climbing Vancouver Center
07:05PM 50.4333 -120.8667 212° Southwest 160 184 16,300 1,140 Climbing Vancouver Center
07:06PM 50.4000 -120.9167 224° Southwest 180 207 17,200 1,020 Climbing Vancouver Center
07:07PM 50.3500 -120.9667 213° Southwest 180 207 18,400 1,140 Climbing Vancouver Center
07:08PM 50.3167 -121.0333 232° Southwest 180 207 19,500 780 Climbing Vancouver Center
07:09PM 50.2667 -121.0833 213° Southwest 180 207 20,000 240 Climbing Vancouver Center
07:10PM 50.2500 -121.1333 242° Southwest 200 230 20,000  Level Vancouver Center
07:11PM 50.2000 -121.1833 213° Southwest 220 253 20,000  Level Vancouver Center
07:12PM 50.1500 -121.2500 221° Southwest 230 265 20,000  Level Vancouver Center
07:13PM 50.1000 -121.3000 213° Southwest 230 265 20,000  Level Vancouver Center
07:14PM 50.0333 -121.3833 219° Southwest 240 276 20,000  Level Vancouver Center
07:15PM 49.9833 -121.4333 213° Southwest 240 276 20,000  Level Vancouver Center
07:16PM 49.9333 -121.5167 227° Southwest 240 276 20,000  Level Vancouver Center
07:17PM 49.8833 -121.5667 213° Southwest 240 276 20,000  Level Vancouver Center
07:19PM 49.8375 -121.6774 237° Southwest  Level Estimated
07:26PM 49.6147 -122.2087 237° Southwest  Level Estimated
07:27PM 49.5827 -122.2842 237° Southwest  Level Estimated
07:28PM 49.5506 -122.3597 237° Southwest  Level Estimated
07:29PM 49.5185 -122.4350 237° Southwest  Level Estimated
07:30PM 49.4863 -122.5102 237° Southwest  Level Estimated
07:31PM 49.4541 -122.5853 237° Southwest  Level Estimated
07:32PM 49.4218 -122.6603 237° Southwest  Level Estimated
07:33PM 49.3895 -122.7353 236° Southwest  Level Estimated
07:34PM 49.3572 -122.8101 236° Southwest  Level Estimated
07:35PM 49.3248 -122.8848 236° Southwest  Level Estimated
07:36PM 49.2923 -122.9594 236° Southwest  Level Estimated
07:37PM 49.2598 -123.0340 236° Southwest  Level Estimated
07:38PM 49.2272 -123.1084 236° Southwest  Level Estimated
07:39PM 49.1946 -123.1827 236° Southwest  Level Estimated
07:40PM 49.1939 -123.1844 236° Southwest  Level Estimated
07:41PM 49.1939 -123.1844 249° West  Level Estimated
07:42PM 49.1939 -123.1844 249° West  Level Estimated
07:43PM 49.1939 -123.1844 249° West  Level Estimated
07:44PM 49.1939 -123.1844 249° West  Level Estimated
07:45PM 49.1939 -123.1844 249° West  Level Estimated
07:46PM 49.1939 -123.1844 249° West  Level Estimated
07:47PM 49.1939 -123.1844 249° West  Level Estimated
07:48PM 49.1939 -123.1844 249° West  Level Estimated
07:49PM 49.1939 -123.1844 249° West  Level Estimated
07:50PM 49.1939 -123.1844 249° West  Level Estimated
07:51PM 49.1939 -123.1844 249° West  Level Estimated
07:52PM 49.1939 -123.1844 249° West  Level Estimated
07:53PM 49.1939 -123.1844 249° West  Level Estimated
07:54PM 49.1939 -123.1844 249° West  Level Estimated